Aviation Digital Data Service (ADDS)

Output produced by METARs form (0449 UTC 22 February 2018)
found at http://bcaws.aviationweather.gov/adds/metars/
 
METAR text: KSQL 220347Z 30007KT 10SM FEW050 SCT200 09/01 A3019
Conditions at: KSQL (SAN CARLOS AIRPO, CA, US) observed 0347 UTC 22 February 2018
Temperature: 9.0°C (48°F)
Dewpoint: 1.0°C (34°F) [RH = 57%]
Pressure (altimeter): 30.19 inches Hg (1022.4 mb)
Winds: from the WNW (300 degrees) at 8 MPH (7 knots; 3.6 m/s)
Visibility: 10 or more miles (16+ km)
Ceiling: at least 12,000 feet AGL
Clouds: few clouds at 5000 feet AGL
scattered clouds at 20000 feet AGL
Weather: no significant weather observed at this time